createdAt,value
2019-04-29T00:01:26.967Z,5.30
2019-04-29T00:03:54.394Z,5.20
2019-04-29T00:06:21.762Z,5.10
2019-04-29T00:08:48.916Z,5.20
2019-04-29T00:11:16.229Z,5.30
2019-04-29T00:13:43.658Z,5.30
2019-04-29T00:16:29.011Z,5.40
2019-04-29T00:19:16.956Z,5.40
2019-04-29T00:21:44.244Z,5.40
2019-04-29T00:24:11.870Z,5.50
2019-04-29T00:26:38.850Z,5.50
2019-04-29T00:29:06.378Z,5.50
2019-04-29T00:31:33.696Z,5.50
2019-04-29T00:34:00.917Z,5.50
2019-04-29T00:36:33.316Z,5.50
2019-04-29T00:39:18.681Z,5.50
2019-04-29T00:42:03.312Z,5.50
2019-04-29T00:44:30.371Z,5.50
2019-04-29T00:46:57.635Z,5.50
2019-04-29T00:49:24.878Z,5.40
2019-04-29T00:51:51.942Z,5.50
2019-04-29T00:54:27.116Z,5.40
2019-04-29T00:56:54.310Z,5.30
2019-04-29T00:59:21.745Z,5.30
2019-04-29T01:01:48.991Z,5.30
2019-04-29T01:04:16.280Z,5.30
2019-04-29T01:06:43.600Z,5.30
2019-04-29T01:09:13.360Z,5.30
2019-04-29T01:11:40.484Z,5.30
2019-04-29T01:14:07.903Z,5.30
2019-04-29T01:16:38.345Z,5.20
2019-04-29T01:19:06.663Z,5.10
2019-04-29T01:21:34.038Z,5.10
2019-04-29T01:24:01.325Z,5.00
2019-04-29T01:26:47.914Z,4.90
2019-04-29T01:29:16.470Z,4.80
2019-04-29T01:31:43.439Z,4.70
2019-04-29T01:34:17.201Z,4.60
2019-04-29T01:36:44.973Z,4.60
2019-04-29T01:39:12.643Z,4.60
2019-04-29T01:41:54.355Z,4.50
2019-04-29T01:44:22.071Z,4.50
2019-04-29T01:46:49.665Z,4.40
2019-04-29T01:49:16.938Z,4.40
2019-04-29T01:51:44.020Z,4.40
2019-04-29T01:54:11.039Z,4.40
2019-04-29T01:56:38.263Z,4.40
2019-04-29T01:59:05.495Z,4.40
2019-04-29T02:01:35.794Z,4.40
2019-04-29T02:04:03.434Z,4.40
2019-04-29T02:06:30.759Z,4.40
2019-04-29T02:08:58.232Z,4.40
2019-04-29T02:11:25.536Z,4.40
2019-04-29T02:13:52.698Z,4.30
2019-04-29T02:16:20.273Z,4.40
2019-04-29T02:18:47.520Z,4.40
2019-04-29T02:21:14.932Z,4.40
2019-04-29T02:23:51.204Z,4.30
2019-04-29T02:26:18.188Z,4.20
2019-04-29T02:28:45.603Z,4.20
2019-04-29T02:31:32.351Z,4.20
2019-04-29T02:34:11.105Z,4.30
2019-04-29T02:36:39.334Z,4.20
2019-04-29T02:39:33.932Z,4.20
2019-04-29T02:42:27.408Z,4.20
2019-04-29T02:45:00.470Z,4.20
2019-04-29T02:47:28.091Z,4.10
2019-04-29T02:49:55.469Z,4.00
2019-04-29T02:52:22.822Z,4.00
2019-04-29T02:54:51.903Z,4.00
2019-04-29T02:57:32.989Z,4.00
2019-04-29T03:00:15.482Z,4.00
2019-04-29T03:02:48.343Z,4.00
2019-04-29T03:05:24.131Z,4.00
2019-04-29T03:07:51.697Z,3.90
2019-04-29T03:10:18.802Z,4.00
2019-04-29T03:12:46.225Z,4.00
2019-04-29T03:15:21.271Z,4.10
2019-04-29T03:17:48.818Z,4.10
2019-04-29T03:20:27.615Z,4.10
2019-04-29T03:23:09.255Z,4.10
2019-04-29T03:25:36.804Z,4.10
2019-04-29T03:28:05.433Z,4.00
2019-04-29T03:30:32.916Z,4.10
2019-04-29T03:33:00.292Z,4.20
2019-04-29T03:35:27.726Z,4.20
2019-04-29T03:37:54.932Z,4.20
2019-04-29T03:40:22.012Z,4.20
2019-04-29T03:42:49.358Z,4.30
2019-04-29T03:45:16.782Z,4.30
2019-04-29T03:47:43.689Z,4.30
2019-04-29T03:50:11.009Z,4.30
2019-04-29T03:52:38.182Z,4.20
2019-04-29T03:55:05.409Z,4.10
2019-04-29T03:57:35.813Z,4.00
2019-04-29T04:00:04.276Z,4.00
2019-04-29T04:02:38.680Z,4.00
2019-04-29T04:05:18.545Z,4.00
2019-04-29T04:08:01.878Z,4.00
2019-04-29T04:10:29.148Z,4.00
2019-04-29T04:12:56.317Z,3.90
2019-04-29T04:15:23.838Z,4.00
2019-04-29T04:17:59.356Z,4.00
2019-04-29T04:20:27.208Z,4.00
2019-04-29T04:22:54.399Z,4.00
2019-04-29T04:25:24.818Z,4.00
2019-04-29T04:27:52.117Z,4.00
2019-04-29T04:30:20.567Z,4.10
2019-04-29T04:32:47.784Z,4.10
2019-04-29T04:35:14.807Z,4.20
2019-04-29T04:37:41.861Z,4.20
2019-04-29T04:40:11.349Z,4.20
2019-04-29T04:42:38.939Z,4.30
2019-04-29T04:45:06.646Z,4.30
2019-04-29T04:47:33.881Z,4.40
2019-04-29T04:50:01.529Z,4.50
2019-04-29T04:52:28.591Z,4.60
2019-04-29T04:54:56.133Z,4.60
2019-04-29T04:57:23.373Z,4.70
2019-04-29T04:59:51.734Z,4.90
2019-04-29T05:02:18.884Z,5.10
2019-04-29T05:04:46.151Z,5.30
2019-04-29T05:07:13.903Z,5.50
2019-04-29T05:09:41.266Z,5.70
2019-04-29T05:12:08.457Z,5.80
2019-04-29T05:14:35.597Z,6.10
2019-04-29T05:17:03.015Z,6.30
2019-04-29T05:19:30.198Z,6.50
2019-04-29T05:21:57.443Z,6.70
2019-04-29T05:24:24.650Z,6.90
2019-04-29T05:26:52.254Z,7.20
2019-04-29T05:29:19.273Z,7.40
2019-04-29T05:31:46.541Z,7.70
2019-04-29T05:34:14.544Z,7.90
2019-04-29T05:36:49.836Z,8.10
2019-04-29T05:39:20.991Z,8.50
2019-04-29T05:41:48.279Z,8.80
2019-04-29T05:44:22.142Z,9.10
2019-04-29T05:47:05.054Z,9.40
2019-04-29T05:49:41.643Z,9.70
2019-04-29T05:52:19.849Z,9.90
2019-04-29T05:54:47.190Z,10.10
2019-04-29T05:57:14.387Z,10.40
2019-04-29T05:59:43.347Z,10.90
2019-04-29T06:02:11.195Z,11.30
2019-04-29T06:04:38.563Z,11.80
2019-04-29T06:07:05.917Z,12.20
2019-04-29T06:09:32.915Z,12.50
2019-04-29T06:12:00.832Z,12.80
2019-04-29T06:14:28.087Z,12.90
2019-04-29T06:16:57.738Z,13.00
2019-04-29T06:19:25.214Z,13.20
2019-04-29T06:21:53.351Z,13.40
2019-04-29T06:24:22.063Z,13.70
2019-04-29T06:26:49.408Z,14.10
2019-04-29T06:29:17.110Z,14.60
2019-04-29T06:31:44.127Z,15.30
2019-04-29T06:34:11.112Z,16.00
2019-04-29T06:36:38.071Z,16.50
2019-04-29T06:39:05.897Z,16.90
2019-04-29T06:41:33.156Z,17.50
2019-04-29T06:44:05.737Z,17.50
2019-04-29T06:46:30.240Z,17.60
2019-04-29T06:49:09.429Z,17.40
2019-04-29T06:51:26.688Z,17.50
2019-04-29T06:53:53.956Z,17.60
2019-04-29T06:56:21.321Z,17.70
2019-04-29T06:58:51.383Z,17.60
2019-04-29T07:01:18.715Z,17.50
2019-04-29T07:03:45.697Z,17.30
2019-04-29T07:06:13.259Z,17.10
2019-04-29T07:08:40.815Z,17.10
2019-04-29T07:11:10.960Z,16.90
2019-04-29T07:13:38.435Z,16.90
2019-04-29T07:16:05.786Z,17.20
2019-04-29T07:18:33.054Z,17.80
2019-04-29T07:21:00.315Z,18.30
2019-04-29T07:23:28.084Z,18.20
2019-04-29T07:25:55.208Z,18.30
2019-04-29T07:28:22.361Z,18.50
2019-04-29T07:31:01.080Z,18.80
2019-04-29T07:33:22.703Z,19.00
2019-04-29T07:35:49.329Z,19.30
2019-04-29T07:38:16.442Z,19.50
2019-04-29T07:40:44.668Z,19.70
2019-04-29T07:43:12.382Z,19.80
2019-04-29T07:46:10.762Z,19.60
2019-04-29T07:48:41.819Z,19.80
2019-04-29T07:51:07.675Z,20.00
2019-04-29T07:53:44.463Z,20.00
2019-04-29T07:56:06.359Z,20.10
2019-04-29T07:58:33.362Z,20.30
2019-04-29T08:01:00.884Z,20.60
2019-04-29T08:03:28.058Z,20.40
2019-04-29T08:05:56.842Z,20.70
2019-04-29T08:08:24.143Z,21.00
2019-04-29T08:10:56.375Z,20.90
2019-04-29T08:13:21.947Z,21.10
2019-04-29T08:15:49.087Z,20.70
2019-04-29T08:18:18.094Z,20.50
2019-04-29T08:20:45.509Z,20.30
2019-04-29T08:23:12.703Z,20.80
2019-04-29T08:25:39.797Z,20.90
2019-04-29T08:28:06.628Z,21.40
2019-04-29T08:30:34.026Z,21.50
2019-04-29T08:33:01.027Z,21.50
2019-04-29T08:35:32.569Z,22.10
2019-04-29T08:37:57.976Z,22.40
2019-04-29T08:40:25.606Z,23.40
2019-04-29T08:43:25.089Z,24.20
2019-04-29T08:46:00.329Z,24.90
2019-04-29T08:48:27.942Z,25.60
2019-04-29T08:50:56.423Z,26.30
2019-04-29T08:53:23.865Z,26.60
2019-04-29T08:55:50.921Z,26.50
2019-04-29T08:58:17.864Z,26.60
2019-04-29T09:00:45.261Z,26.80
2019-04-29T09:03:12.608Z,27.10
2019-04-29T09:05:41.616Z,27.50
2019-04-29T09:08:09.030Z,27.40
2019-04-29T09:10:36.835Z,27.00
2019-04-29T09:13:04.768Z,26.20
2019-04-29T09:15:32.179Z,25.70
2019-04-29T09:17:59.604Z,25.20
2019-04-29T09:20:26.790Z,24.50
2019-04-29T09:22:58.787Z,24.10
2019-04-29T09:25:42.092Z,23.80
2019-04-29T09:28:14.305Z,23.60
2019-04-29T09:30:40.527Z,22.80
2019-04-29T09:33:08.652Z,22.50
2019-04-29T09:35:38.663Z,22.40
2019-04-29T09:38:06.544Z,22.50
2019-04-29T09:40:38.145Z,22.50
2019-04-29T09:43:21.349Z,22.30
2019-04-29T09:46:01.509Z,22.50
2019-04-29T09:48:29.928Z,22.60
2019-04-29T09:50:57.353Z,22.60
2019-04-29T09:53:24.208Z,22.50
2019-04-29T09:55:52.700Z,22.60
2019-04-29T09:58:21.055Z,22.40
2019-04-29T10:00:58.515Z,21.90
2019-04-29T10:03:42.109Z,21.60
2019-04-29T10:06:24.694Z,21.40
2019-04-29T10:08:51.997Z,21.60
2019-04-29T10:11:19.708Z,22.00
2019-04-29T10:13:46.907Z,22.60
2019-04-29T10:16:20.619Z,23.10
2019-04-29T10:18:55.227Z,23.30
2019-04-29T10:21:23.363Z,23.30
2019-04-29T10:23:51.136Z,23.20
2019-04-29T10:26:25.184Z,23.30
2019-04-29T10:29:08.494Z,23.00
2019-04-29T10:31:35.818Z,22.90
2019-04-29T10:34:03.007Z,23.00
2019-04-29T10:36:30.489Z,23.10
2019-04-29T10:39:02.544Z,23.20
2019-04-29T10:41:39.828Z,23.50
2019-04-29T10:44:25.657Z,23.70
2019-04-29T10:47:08.978Z,23.80
2019-04-29T10:49:57.317Z,23.90
2019-04-29T10:52:25.033Z,24.00
2019-04-29T10:54:55.227Z,24.40
2019-04-29T10:57:22.775Z,24.50
2019-04-29T10:59:54.057Z,24.60
2019-04-29T11:02:37.906Z,24.50
2019-04-29T11:05:29.365Z,24.20
2019-04-29T11:08:02.613Z,24.20
2019-04-29T11:10:31.048Z,24.00
2019-04-29T11:12:59.001Z,23.40
2019-04-29T11:15:32.565Z,23.30
2019-04-29T11:18:06.929Z,23.40
2019-04-29T11:20:34.506Z,23.20
2019-04-29T11:23:36.830Z,23.00
2019-04-29T11:26:36.873Z,22.90
2019-04-29T11:29:06.234Z,22.90
2019-04-29T11:31:35.221Z,22.80
2019-04-29T11:34:23.573Z,22.80
2019-04-29T11:36:50.964Z,22.80
2019-04-29T11:39:18.137Z,22.90
2019-04-29T11:41:45.663Z,23.00
2019-04-29T11:44:13.239Z,23.40
2019-04-29T11:46:44.627Z,24.00
2019-04-29T11:49:12.490Z,24.50
2019-04-29T11:52:07.737Z,25.40
2019-04-29T11:54:17.886Z,25.50
2019-04-29T11:56:42.774Z,26.20
2019-04-29T11:59:27.927Z,27.30
2019-04-29T12:02:13.321Z,28.20
2019-04-29T12:04:44.251Z,28.90
2019-04-29T12:07:11.698Z,28.50
2019-04-29T12:09:38.854Z,26.80
2019-04-29T12:12:07.783Z,26.40
2019-04-29T12:15:00.391Z,26.20
2019-04-29T12:17:59.552Z,25.00
2019-04-29T12:20:32.608Z,24.00
2019-04-29T12:22:59.930Z,23.90
2019-04-29T12:25:28.978Z,24.10
2019-04-29T12:28:01.615Z,24.30
2019-04-29T12:30:29.947Z,24.20
2019-04-29T12:33:03.432Z,24.10
2019-04-29T12:35:53.547Z,24.30
2019-04-29T12:38:39.341Z,24.70
2019-04-29T12:41:21.089Z,25.30
2019-04-29T12:43:59.566Z,26.20
2019-04-29T12:46:48.592Z,26.90
2019-04-29T12:49:16.078Z,27.20
2019-04-29T12:51:43.636Z,27.40
2019-04-29T12:54:11.134Z,27.60
2019-04-29T12:56:43.309Z,27.90
2019-04-29T12:59:08.941Z,27.30
2019-04-29T13:02:07.699Z,26.60
2019-04-29T13:04:59.434Z,25.80
2019-04-29T13:07:32.363Z,24.70
2019-04-29T13:10:06.836Z,24.00
2019-04-29T13:12:33.987Z,23.40
2019-04-29T13:15:23.360Z,22.80
2019-04-29T13:18:03.659Z,22.40
2019-04-29T13:20:25.914Z,22.00
2019-04-29T13:22:53.307Z,21.40
2019-04-29T13:25:20.997Z,21.20
2019-04-29T13:27:48.174Z,21.10
2019-04-29T13:30:16.480Z,21.00
2019-04-29T13:32:43.571Z,20.80
2019-04-29T13:35:12.743Z,20.70
2019-04-29T13:37:40.307Z,20.60
2019-04-29T13:40:09.934Z,20.50
2019-04-29T13:42:37.300Z,20.00
2019-04-29T13:45:12.579Z,19.40
2019-04-29T13:47:50.761Z,18.90
2019-04-29T13:50:38.967Z,18.50
2019-04-29T13:52:54.624Z,18.20
2019-04-29T13:55:46.534Z,18.00
2019-04-29T13:57:54.788Z,17.90
2019-04-29T14:00:37.089Z,17.90
2019-04-29T14:03:11.604Z,17.80
2019-04-29T14:05:41.362Z,17.70
2019-04-29T14:08:07.199Z,17.80
2019-04-29T14:10:34.624Z,17.80
2019-04-29T14:13:10.869Z,17.70
2019-04-29T14:15:34.026Z,17.20
2019-04-29T14:18:00.538Z,16.60
2019-04-29T14:20:28.017Z,16.10
2019-04-29T14:22:55.088Z,15.90
2019-04-29T14:25:22.240Z,15.70
2019-04-29T14:27:49.792Z,15.50
2019-04-29T14:30:21.000Z,15.60
2019-04-29T14:32:51.604Z,15.50
2019-04-29T14:35:25.423Z,15.40
2019-04-29T14:37:55.391Z,15.30
2019-04-29T14:40:21.614Z,15.30
2019-04-29T14:43:25.788Z,15.20
2019-04-29T14:46:18.574Z,15.10
2019-04-29T14:48:50.333Z,15.00
2019-04-29T14:51:21.133Z,15.00
2019-04-29T14:53:56.233Z,15.00
2019-04-29T14:56:17.260Z,14.90
2019-04-29T14:58:44.806Z,14.80
2019-04-29T15:01:23.432Z,14.50
2019-04-29T15:03:54.911Z,14.30
2019-04-29T15:06:22.723Z,14.20
2019-04-29T15:08:50.051Z,14.00
2019-04-29T15:11:31.036Z,13.90
2019-04-29T15:13:49.234Z,13.60
2019-04-29T15:16:28.509Z,13.50
2019-04-29T15:19:24.373Z,13.40
2019-04-29T15:21:56.072Z,13.30
2019-04-29T15:24:27.287Z,13.00
2019-04-29T15:26:52.492Z,12.80
2019-04-29T15:29:19.665Z,12.70
2019-04-29T15:31:48.607Z,12.50
2019-04-29T15:34:16.115Z,12.40
2019-04-29T15:36:43.451Z,12.20
2019-04-29T15:39:12.012Z,12.10
2019-04-29T15:41:39.987Z,12.10
2019-04-29T15:44:09.066Z,12.10
2019-04-29T15:46:46.211Z,12.10
2019-04-29T15:49:06.421Z,12.00
2019-04-29T15:51:33.779Z,11.90
2019-04-29T15:54:00.910Z,11.80
2019-04-29T15:56:33.381Z,11.80
2019-04-29T15:58:59.518Z,11.90
2019-04-29T16:01:28.186Z,11.90
2019-04-29T16:03:57.616Z,12.00
2019-04-29T16:06:40.036Z,12.00
2019-04-29T16:09:16.459Z,12.00
2019-04-29T16:12:18.033Z,12.00
2019-04-29T16:14:49.066Z,12.00
2019-04-29T16:19:44.773Z,11.90
2019-04-29T16:22:13.043Z,11.90
2019-04-29T16:24:41.820Z,11.90
2019-04-29T16:27:10.521Z,11.90
2019-04-29T16:29:38.089Z,11.80
2019-04-29T16:32:08.242Z,11.70
2019-04-29T16:34:37.390Z,11.60
2019-04-29T16:37:06.191Z,11.50
2019-04-29T16:39:33.607Z,11.40
2019-04-29T16:42:18.279Z,11.40
2019-04-29T16:44:45.871Z,11.40
2019-04-29T16:47:13.721Z,11.40
2019-04-29T16:49:42.398Z,11.40
2019-04-29T16:52:09.756Z,11.50
2019-04-29T16:54:37.319Z,11.50
2019-04-29T16:57:04.908Z,11.50
2019-04-29T16:59:32.342Z,11.70
2019-04-29T17:01:59.935Z,11.70
2019-04-29T17:04:27.228Z,11.80
2019-04-29T17:09:48.932Z,11.90
2019-04-29T17:12:15.918Z,11.90
2019-04-29T17:15:03.058Z,11.90
2019-04-29T17:17:18.223Z,11.80
2019-04-29T17:19:45.728Z,11.70
2019-04-29T17:22:25.586Z,11.70
2019-04-29T17:24:43.197Z,11.70
2019-04-29T17:27:42.084Z,11.60
2019-04-29T17:30:46.521Z,11.60
2019-04-29T17:33:35.568Z,11.60
2019-04-29T17:35:13.991Z,11.90
2019-04-29T17:35:14.557Z,11.90
2019-04-29T17:36:03.921Z,11.60
2019-04-29T17:38:31.674Z,11.50
2019-04-29T17:40:59.329Z,11.40
2019-04-29T17:43:55.236Z,11.40
2019-04-29T17:46:40.851Z,11.40
2019-04-29T17:49:14.274Z,11.30
2019-04-29T17:51:42.717Z,11.20
2019-04-29T17:54:12.308Z,11.10
2019-04-29T17:56:48.360Z,11.30
2019-04-29T17:59:40.865Z,11.40
2019-04-29T18:02:30.851Z,11.40
2019-04-29T18:05:20.931Z,11.40
2019-04-29T18:07:55.281Z,11.40
2019-04-29T18:10:29.982Z,11.50
2019-04-29T18:12:57.180Z,11.50
2019-04-29T18:15:26.266Z,11.50
2019-04-29T18:17:55.876Z,11.50
2019-04-29T18:20:41.053Z,11.50
2019-04-29T18:23:40.082Z,11.50
2019-04-29T18:26:14.858Z,11.50
2019-04-29T18:28:43.139Z,11.50
2019-04-29T18:31:12.031Z,11.50
2019-04-29T18:33:39.643Z,11.50
2019-04-29T18:36:07.191Z,11.50
2019-04-29T18:38:35.137Z,11.50
2019-04-29T18:41:02.834Z,11.50
2019-04-29T18:43:30.224Z,11.50
2019-04-29T18:45:59.137Z,11.50
2019-04-29T18:48:27.211Z,11.50
2019-04-29T18:50:57.145Z,11.50
2019-04-29T18:53:25.573Z,11.50
2019-04-29T18:55:54.632Z,11.50
2019-04-29T18:58:22.359Z,11.50
2019-04-29T19:00:53.704Z,11.50
2019-04-29T19:03:29.815Z,11.50
2019-04-29T19:05:56.898Z,11.50
2019-04-29T19:08:26.625Z,11.50
2019-04-29T19:10:53.468Z,11.50
2019-04-29T19:13:22.947Z,11.50
2019-04-29T19:15:50.503Z,11.60
2019-04-29T19:18:21.074Z,11.60
2019-04-29T19:20:52.503Z,11.60
2019-04-29T19:23:22.379Z,11.50
2019-04-29T19:25:49.612Z,11.40
2019-04-29T19:28:25.210Z,11.40
2019-04-29T19:30:45.414Z,11.40
2019-04-29T19:33:12.695Z,11.40
2019-04-29T19:35:40.848Z,11.40
2019-04-29T19:38:12.375Z,11.40
2019-04-29T19:40:41.463Z,11.40
2019-04-29T19:43:10.413Z,11.40
2019-04-29T19:45:36.324Z,11.40
2019-04-29T19:48:05.846Z,11.50
2019-04-29T19:50:33.331Z,11.50
2019-04-29T19:53:04.947Z,11.50
2019-04-29T19:55:33.188Z,11.50
2019-04-29T19:57:59.598Z,11.50
2019-04-29T20:00:29.437Z,11.60
2019-04-29T20:02:57.515Z,11.60
2019-04-29T20:05:37.591Z,11.60
2019-04-29T20:08:03.858Z,11.60
2019-04-29T20:10:42.130Z,11.60
2019-04-29T20:13:01.774Z,11.60
2019-04-29T20:15:33.882Z,11.60
2019-04-29T20:18:23.724Z,11.60
2019-04-29T20:21:07.818Z,11.70
2019-04-29T20:23:27.782Z,11.70
2019-04-29T20:26:12.283Z,11.70
2019-04-29T20:28:25.957Z,11.70
2019-04-29T20:30:58.382Z,11.70
2019-04-29T20:33:22.223Z,11.70
2019-04-29T20:35:50.873Z,11.70
2019-04-29T20:38:18.139Z,11.70
2019-04-29T20:40:46.625Z,11.70
2019-04-29T20:43:16.093Z,11.70
2019-04-29T20:45:45.481Z,11.70
2019-04-29T20:48:16.020Z,11.70
2019-04-29T20:50:46.110Z,11.70
2019-04-29T20:53:17.613Z,11.60
2019-04-29T20:55:46.105Z,11.60
2019-04-29T20:58:15.559Z,11.60
2019-04-29T21:00:45.041Z,11.70
2019-04-29T21:03:12.624Z,11.70
2019-04-29T21:05:48.240Z,11.70
2019-04-29T21:08:16.361Z,11.70
2019-04-29T21:10:43.031Z,11.60
2019-04-29T21:13:20.362Z,11.60
2019-04-29T21:15:55.605Z,11.60
2019-04-29T21:18:22.780Z,11.60
2019-04-29T21:20:50.254Z,11.60
2019-04-29T21:23:17.814Z,11.60
2019-04-29T21:25:45.843Z,11.60
2019-04-29T21:28:13.899Z,11.60
2019-04-29T21:30:42.663Z,11.60
2019-04-29T21:33:17.908Z,11.60
2019-04-29T21:35:49.636Z,11.60
2019-04-29T21:38:35.230Z,11.60
2019-04-29T21:41:06.842Z,11.50
2019-04-29T21:43:36.438Z,11.50
2019-04-29T21:46:05.280Z,11.50
2019-04-29T21:48:33.664Z,11.50
2019-04-29T21:51:01.899Z,11.50
2019-04-29T21:53:31.613Z,11.50
2019-04-29T21:55:59.711Z,11.50
2019-04-29T21:58:32.990Z,11.50
2019-04-29T22:01:00.334Z,11.50
2019-04-29T22:03:28.383Z,11.50
2019-04-29T22:05:57.332Z,11.50
2019-04-29T22:08:29.846Z,11.50
2019-04-29T22:10:59.628Z,11.50
2019-04-29T22:13:24.912Z,11.50
2019-04-29T22:15:52.720Z,11.50
2019-04-29T22:18:20.122Z,11.40
2019-04-29T22:20:47.174Z,11.40
2019-04-29T22:23:16.712Z,11.40
2019-04-29T22:25:45.689Z,11.40
2019-04-29T22:28:16.075Z,11.40
2019-04-29T22:30:41.700Z,11.30
2019-04-29T22:33:08.850Z,11.30
2019-04-29T22:35:39.642Z,11.30
2019-04-29T22:38:12.706Z,11.30
2019-04-29T22:40:40.895Z,11.30
2019-04-29T22:43:17.103Z,11.30
2019-04-29T22:45:44.443Z,11.30
2019-04-29T22:48:18.967Z,11.30
2019-04-29T22:50:41.926Z,11.30
2019-04-29T22:53:09.304Z,11.30
2019-04-29T22:55:38.798Z,11.30
2019-04-29T22:58:09.705Z,11.30
2019-04-29T23:00:36.229Z,11.20
2019-04-29T23:03:04.866Z,11.20
2019-04-29T23:05:32.171Z,11.20
2019-04-29T23:08:00.392Z,11.20
2019-04-29T23:10:28.045Z,11.20
2019-04-29T23:12:57.421Z,11.30
2019-04-29T23:15:26.049Z,11.30
2019-04-29T23:17:53.452Z,11.30
2019-04-29T23:20:55.371Z,11.30
2019-04-29T23:23:33.421Z,11.30
2019-04-29T23:25:59.877Z,11.30
2019-04-29T23:28:28.432Z,11.30
2019-04-29T23:30:55.687Z,11.30
2019-04-29T23:33:24.070Z,11.30
2019-04-29T23:35:52.185Z,11.40
2019-04-29T23:38:19.390Z,11.40
2019-04-29T23:40:49.728Z,11.40
2019-04-29T23:43:20.052Z,11.40
2019-04-29T23:45:45.370Z,11.40
2019-04-29T23:48:12.950Z,11.40
2019-04-29T23:50:40.379Z,11.40
2019-04-29T23:53:07.634Z,11.50
2019-04-29T23:55:35.695Z,11.50
2019-04-29T23:58:15.469Z,11.50
